首页
METAR-TAF:

METAR-TAF

机场 :

Uden, 荷兰

纬度: 51-39N, 经度: 005-42E, 海拔: 22米

当前天气观测

该预报发布于25分钟前的16:25 UTC
风速9节,风向,在西转西北北转东北之间变化
温度 25°C
湿度 65%
气压 1025 hPa
能见度10公里或以上

METAR: EHVK 261625Z AUTO 35009KT 300V020 9999 NCD 25/18 Q1025 BLU

时间: 18:50 (16:50 UTC)

预报

该预报发布于4小时和44分钟前的12:06 UTC
预报有效从26日的 13点(UTC)到 27日的 01点(UTC)
风速9节,风向
能见度10公里或以上
1500米以下无云,无积雨云
成为
从 26日的 16点(UTC)到 26日的 19点(UTC)
风速9节,风向北转东北

TAF: EHVK 261206Z 2613/2701 35009KT CAVOK BECMG 2616/2619 03009KT

超过4000个机场的气象观测和天气预报(METAR&TAF报告)。

可查询的气象台以黄色和红色小点在地图上表示。

将鼠标移到小点上方,可查看气象台名称。

然后点击查看天气观测和预报。

如需切换地图:点击带黑十字的绿色按钮放大地图;点击带横线的绿色按钮缩小地图;或者点击绿色箭头查看邻近地区的地图。


METAR-TAF: